Time;durP1;ratioP1;P1;durP2;ratioP2;P2;SDS_P1;SDS_P2;PMS_P1;PMS_P2;Temp;Humidity;BMP_temperature;BMP_pressure;BME280_temperature;BME280_humidity;BME280_pressure;Samples;Min_cycle;Max_cycle;Signal;HPM_P1;HPM_P2
2022/06/15 00:02:12;;;;;;;9.05;4.28;;;;;;;;;;4863458;29;20053;-91
2022/06/15 00:04:38;;;;;;;6.30;4.40;;;;;;;;;;4872302;29;20072;-85
2022/06/15 00:07:04;;;;;;;8.90;5.07;;;;;;;;;;4885261;29;20048;-85
2022/06/15 00:09:30;;;;;;;7.50;5.35;;;;;;;;;;4895686;29;20607;-89
2022/06/15 00:11:56;;;;;;;9.38;5.20;;;;;;;;;;4891979;29;20072;-88
2022/06/15 00:14:25;;;;;;;11.63;5.47;;;;;;;;;;4866340;29;20096;-87
2022/06/15 00:16:52;;;;;;;8.00;5.32;;;;;;;;;;4887983;29;20505;-89
2022/06/15 00:19:18;;;;;;;9.38;4.85;;;;;;;;;;4875127;29;20550;-90
2022/06/15 00:21:44;;;;;;;9.27;5.20;;;;;;;;;;4880585;29;20063;-87
2022/06/15 00:24:11;;;;;;;10.63;5.22;;;;;;;;;;4870638;29;20076;-89
2022/06/15 00:26:38;;;;;;;8.02;4.80;;;;;;;;;;4878816;29;20057;-90
2022/06/15 00:29:04;;;;;;;8.23;4.57;;;;;;;;;;4863294;29;20060;-90
2022/06/15 00:31:31;;;;;;;8.65;5.15;;;;;;;;;;4875367;29;20087;-90
2022/06/15 00:33:57;;;;;;;7.45;4.60;;;;;;;;;;4887371;29;20087;-90
2022/06/15 00:36:23;;;;;;;9.50;4.72;;;;;;;;;;4882738;29;20473;-90
2022/06/15 00:38:55;;;;;;;5.65;4.05;;;13.70;99.90;;;;;;4857068;29;20041;-87
2022/06/15 00:41:23;;;;;;;7.55;4.32;;;;;;;;;;4871927;29;20052;-89
2022/06/15 00:43:54;;;;;;;8.15;4.43;;;;;;;;;;4890132;29;20048;-87
2022/06/15 00:46:23;;;;;;;9.38;4.72;;;;;;;;;;4882361;29;20056;-89
2022/06/15 00:48:51;;;;;;;8.23;4.63;;;;;;;;;;4872624;29;20088;-91
2022/06/15 00:51:17;;;;;;;11.40;5.55;;;;;;;;;;4881424;29;20049;-90
2022/06/15 00:53:44;;;;;;;7.88;5.65;;;;;;;;;;4880296;29;20032;-90
2022/06/15 00:56:10;;;;;;;10.13;6.32;;;;;;;;;;4871189;29;20191;-89
2022/06/15 00:58:40;;;;;;;9.77;5.18;;;;;;;;;;4879055;29;20048;-92
2022/06/15 01:01:07;;;;;;;10.43;5.30;;;;;;;;;;4886227;29;20505;-88
2022/06/15 01:03:33;;;;;;;11.43;6.75;;;;;;;;;;4877461;29;20032;-88
2022/06/15 01:06:05;;;;;;;8.80;6.30;;;;;;;;;;4867756;29;20132;-89
2022/06/15 01:08:50;;;;;;;9.95;7.00;;;;;;;;;;4864197;29;20055;-89
2022/06/15 01:11:16;;;;;;;11.55;5.45;;;;;;;;;;4872337;29;20056;-91
2022/06/15 01:13:45;;;;;;;11.30;6.00;;;;;;;;;;4874875;29;20043;-88
2022/06/15 01:16:21;;;;;;;8.18;5.55;;;;;;;;;;4874720;29;20068;-91
2022/06/15 01:18:53;;;;;;;8.55;5.78;;;;;;;;;;4876305;29;20037;-88
2022/06/15 01:21:26;;;;;;;7.35;5.20;;;;;;;;;;4899836;29;20056;-89
2022/06/15 01:23:58;;;;;;;15.20;6.15;;;;;;;;;;4889581;29;20056;-91
2022/06/15 01:26:28;;;;;;;8.45;5.95;;;;;;;;;;4885459;29;20076;-90
2022/06/15 01:29:17;;;;;;;8.60;5.68;;;;;;;;;;4887443;29;20108;-91
2022/06/15 01:31:51;;;;;;;11.45;6.90;;;;;;;;;;4830204;29;20056;-88
2022/06/15 01:34:27;;;;;;;9.23;6.53;;;;;;;;;;4879054;29;20048;-87
2022/06/15 01:36:59;;;;;;;12.57;6.63;;;;;;;;;;4880998;29;20139;-90
2022/06/15 01:39:25;;;;;;;7.93;6.10;;;;;;;;;;4871669;29;20539;-85
2022/06/15 01:41:51;;;;;;;8.73;6.60;;;;;;;;;;4889052;29;20055;-88
2022/06/15 01:44:21;;;;;;;10.25;6.65;;;;;;;;;;4886100;29;20056;-89
2022/06/15 01:46:47;;;;;;;10.88;6.00;;;;;;;;;;4884332;29;20065;-90
2022/06/15 01:49:18;;;;;;;10.32;6.57;;;;;;;;;;4874705;29;20047;-90
2022/06/15 01:51:44;;;;;;;9.85;5.85;;;;;;;;;;4885912;29;21122;-90
2022/06/15 01:54:22;;;;;;;11.45;6.50;;;;;;;;;;4872835;29;20041;-90
2022/06/15 01:56:49;;;;;;;11.27;7.10;;;;;;;;;;4874167;29;20517;-84
2022/06/15 01:59:18;;;;;;;7.93;6.22;;;;;;;;;;4882976;29;20045;-91
2022/06/15 02:01:49;;;;;;;8.52;6.05;;;;;;;;;;4866125;29;20059;-86
2022/06/15 02:04:26;;;;;;;12.50;6.53;;;;;;;;;;4881702;29;20088;-90
2022/06/15 02:07:05;;;;;;;7.60;6.28;;;;;;;;;;4868502;29;20407;-89
2022/06/15 02:09:34;;;;;;;8.98;6.47;;;;;;;;;;4869801;29;20179;-84
2022/06/15 02:12:01;;;;;;;14.68;7.45;;;;;;;;;;4879107;29;20144;-91
2022/06/15 02:14:32;;;;;;;12.02;7.78;;;;;;;;;;4869108;29;20120;-85
2022/06/15 02:17:01;;;;;;;13.23;8.20;;;;;;;;;;4868319;29;20038;-89
2022/06/15 02:19:32;;;;;;;12.30;7.78;;;;;;;;;;4854906;29;20051;-90
2022/06/15 02:22:00;;;;;;;11.85;8.18;;;;;;;;;;4888121;29;20081;-90
2022/06/15 02:24:27;;;;;;;11.35;7.63;;;;;;;;;;4873591;29;20061;-90
2022/06/15 02:26:53;;;;;;;9.23;6.97;;;;;;;;;;4851965;29;20052;-88
2022/06/15 02:29:23;;;;;;;11.38;6.30;;;;;;;;;;4897661;29;20458;-91
2022/06/15 02:31:49;;;;;;;8.05;6.13;;;;;;;;;;4893167;29;20100;-90
2022/06/15 02:34:15;;;;;;;7.65;5.40;;;;;;;;;;4866601;29;20049;-89
2022/06/15 02:36:42;;;;;;;7.70;5.63;;;;;;;;;;4873052;29;20056;-89
2022/06/15 02:39:08;;;;;;;10.65;5.35;;;;;;;;;;4881514;29;20051;-88
2022/06/15 02:41:35;;;;;;;8.68;5.00;;;;;;;;;;4885313;29;20048;-89
2022/06/15 02:44:03;;;;;;;8.18;5.45;;;;;;;;;;4880309;29;20076;-90
2022/06/15 02:46:31;;;;;;;9.63;5.47;;;;;;;;;;4874292;29;20044;-88
2022/06/15 02:48:57;;;;;;;9.63;5.05;;;;;;;;;;4879288;29;20061;-88
2022/06/15 02:51:23;;;;;;;8.80;5.03;;;;;;;;;;4882336;29;20414;-81
2022/06/15 02:53:51;;;;;;;8.45;5.45;;;;;;;;;;4862444;29;20052;-86
2022/06/15 02:56:19;;;;;;;8.95;5.20;;;;;;;;;;4881869;29;20048;-90
2022/06/15 02:58:46;;;;;;;10.98;5.70;;;;;;;;;;4908288;29;20040;-89
2022/06/15 03:01:12;;;;;;;7.63;4.90;;;;;;;;;;4880299;29;20119;-83
2022/06/15 03:03:39;;;;;;;6.28;5.10;;;;;;;;;;4859591;29;20085;-91
2022/06/15 03:06:11;;;;;;;11.90;5.15;;;;;;;;;;4904778;29;20119;-88
2022/06/15 03:08:37;;;;;;;13.20;5.43;;;;;;;;;;4912531;29;20059;-87
2022/06/15 03:11:03;;;;;;;10.10;5.13;;;;;;;;;;4862546;29;20072;-90
2022/06/15 03:13:29;;;;;;;8.98;4.80;;;;;;;;;;4903327;29;20036;-90
2022/06/15 03:15:59;;;;;;;7.47;5.13;;;;;;;;;;4878678;29;20059;-90
2022/06/15 03:18:29;;;;;;;11.25;6.90;;;;;;;;;;4893125;29;20496;-90
2022/06/15 03:20:59;;;;;;;9.45;5.00;;;;;;;;;;4881125;29;20055;-91
2022/06/15 03:23:25;;;;;;;10.55;5.15;;;;;;;;;;4865727;29;20044;-89
2022/06/15 03:25:55;;;;;;;8.57;5.65;;;;;;;;;;4874117;29;20080;-89
2022/06/15 03:28:21;;;;;;;8.18;5.72;;;;;;;;;;4884757;29;20040;-88
2022/06/15 03:30:47;;;;;;;10.93;5.47;;;;;;;;;;4891254;29;20048;-87
2022/06/15 03:33:13;;;;;;;9.88;6.55;;;;;;;;;;4866061;29;20100;-89
2022/06/15 03:35:39;;;;;;;13.13;6.93;;;;;;;;;;4892528;29;20143;-90
2022/06/15 03:38:08;;;;;;;11.73;5.47;;;;;;;;;;4909221;29;20044;-90
2022/06/15 03:40:35;;;;;;;9.00;5.68;;;;;;;;;;4884022;29;20452;-86
2022/06/15 03:43:01;;;;;;;9.55;5.60;;;;;;;;;;4889876;29;20044;-88
2022/06/15 03:45:28;;;;;;;11.18;6.43;;;;;;;;;;4914727;29;20410;-85
2022/06/15 03:47:57;;;;;;;14.70;6.70;;;;;;;;;;4881033;29;20032;-77
2022/06/15 03:50:23;;;;;;;11.40;6.63;;;;;;;;;;4889318;29;20112;-86
2022/06/15 03:52:50;;;;;;;9.13;6.88;;;;;;;;;;4882135;29;20055;-89
2022/06/15 03:55:16;;;;;;;11.07;6.70;;;;;;;;;;4892818;29;20080;-88
2022/06/15 03:57:42;;;;;;;11.57;6.90;;;;;;;;;;4894142;29;20041;-85
2022/06/15 04:00:11;;;;;;;11.27;6.13;;;;;;;;;;4870416;29;20073;-88
2022/06/15 04:02:38;;;;;;;10.05;6.28;;;;;;;;;;4877868;29;20045;-88
2022/06/15 04:05:04;;;;;;;13.07;7.13;;;;;;;;;;4885339;29;20516;-86
2022/06/15 04:10:15;;;;;;;14.93;5.97;;;;;;;;;;4890679;29;20790;-89
2022/06/15 04:12:43;;;;;;;10.85;6.78;;;;;;;;;;4888681;29;20044;-88
2022/06/15 04:15:10;;;;;;;12.65;6.38;;;;;;;;;;4853290;29;20174;-89
2022/06/15 04:17:36;;;;;;;13.25;6.57;;;;;;;;;;4886467;29;20051;-87
2022/06/15 04:22:47;;;;;;;18.30;6.63;;;;;;;;;;4898959;29;20036;-88
2022/06/15 04:25:13;;;;;;;10.27;6.47;;;;;;;;;;4893619;29;20044;-87
2022/06/15 04:27:39;;;;;;;8.90;6.43;;;;;;;;;;4865296;29;20047;-88
2022/06/15 04:30:05;;;;;;;11.50;6.20;;;;;;;;;;4867564;29;20041;-88
2022/06/15 04:32:31;;;;;;;8.73;6.68;;;;;;;;;;4888139;29;20055;-80
2022/06/15 04:34:57;;;;;;;15.18;7.40;;;;;;;;;;4868732;29;20055;-85
2022/06/15 04:37:23;;;;;;;13.88;6.65;;;;;;;;;;4876011;29;20061;-86
2022/06/15 04:39:49;;;;;;;14.85;6.93;;;;;;;;;;4864407;29;20060;-87
2022/06/15 04:42:15;;;;;;;11.90;6.63;;;;;;;;;;4861105;29;20136;-85
2022/06/15 04:44:41;;;;;;;15.63;7.10;;;;;;;;;;4871007;29;20480;-88
2022/06/15 04:47:08;;;;;;;17.45;7.22;;;;;;;;;;4905154;29;20178;-88
2022/06/15 04:49:34;;;;;;;15.65;6.57;;;;;;;;;;4869046;29;20056;-87
2022/06/15 04:52:01;;;;;;;14.05;7.03;;;;;;;;;;4852280;29;20037;-88
2022/06/15 04:54:27;;;;;;;11.45;7.70;;;;;;;;;;4873710;29;20085;-87
2022/06/15 04:56:53;;;;;;;13.35;7.45;;;;;;;;;;4864714;29;20045;-88
2022/06/15 04:59:19;;;;;;;12.20;7.38;;;;;;;;;;4854668;29;20091;-86
2022/06/15 05:01:46;;;;;;;17.50;6.68;;;;;;;;;;4864961;29;20057;-89
2022/06/15 05:04:12;;;;;;;12.80;6.35;;;;;;;;;;4863060;29;20540;-87
2022/06/15 05:06:39;;;;;;;8.65;6.20;;;;;;;;;;4861855;29;20152;-88
2022/06/15 05:09:07;;;;;;;9.38;5.93;;;;;;;;;;4881517;29;20053;-88
2022/06/15 05:11:33;;;;;;;10.82;6.00;;;;;;;;;;4874996;29;20037;-86
2022/06/15 05:13:59;;;;;;;10.50;5.93;;;;;;;;;;4865963;29;20049;-89
2022/06/15 05:16:26;;;;;;;9.25;5.60;;;;;;;;;;4862433;29;20080;-85
2022/06/15 05:18:52;;;;;;;12.73;5.97;;;;;;;;;;4887403;29;20041;-89
2022/06/15 05:21:18;;;;;;;10.90;5.75;;;;;;;;;;4866811;29;20049;-85
2022/06/15 05:23:45;;;;;;;12.25;5.90;;;;;;;;;;4894351;29;20083;-88
2022/06/15 05:26:11;;;;;;;9.85;5.28;;;;;;;;;;4869720;29;20061;-84
2022/06/15 05:28:38;;;;;;;15.30;4.95;;;;;;;;;;4879140;29;20075;-85
2022/06/15 05:31:09;;;;;;;10.23;5.05;;;;;;;;;;4891461;29;20136;-87
2022/06/15 05:33:36;;;;;;;9.00;5.22;;;;;;;;;;4900452;29;20111;-84
2022/06/15 05:36:08;;;;;;;6.45;4.50;;;15.70;99.90;;;;;;4891881;29;20048;-86
2022/06/15 05:38:34;;;;;;;8.65;4.70;;;;;;;;;;4895369;29;20548;-85
2022/06/15 05:41:00;;;;;;;11.68;4.85;;;;;;;;;;4880316;29;20044;-88
2022/06/15 05:43:26;;;;;;;10.68;4.65;;;;;;;;;;4885218;29;20160;-83
2022/06/15 05:45:52;;;;;;;9.80;4.22;;;;;;;;;;4871083;29;20072;-85
2022/06/15 05:48:18;;;;;;;11.02;4.35;;;;;;;;;;4890243;29;20053;-88
2022/06/15 05:50:44;;;;;;;10.88;4.13;;;;;;;;;;4877829;29;20127;-87
2022/06/15 05:53:10;;;;;;;8.88;4.68;;;;;;;;;;4887437;29;20113;-84
2022/06/15 05:55:36;;;;;;;8.05;4.93;;;;;;;;;;4893859;29;20044;-87
2022/06/15 05:58:03;;;;;;;10.60;5.30;;;;;;;;;;4876084;29;20497;-89
2022/06/15 06:00:30;;;;;;;6.70;3.67;;;;;;;;;;4865599;29;20040;-89
2022/06/15 06:02:56;;;;;;;7.03;4.18;;;;;;;;;;4874510;29;20052;-84
2022/06/15 06:05:23;;;;;;;9.05;4.10;;;;;;;;;;4861027;29;20473;-85
2022/06/15 06:07:49;;;;;;;8.80;5.43;;;;;;;;;;4884732;29;20421;-84
2022/06/15 06:10:15;;;;;;;10.30;5.40;;;;;;;;;;4880447;29;20482;-79
2022/06/15 06:12:41;;;;;;;6.88;4.63;;;;;;;;;;4869269;29;20053;-80
2022/06/15 06:15:08;;;;;;;16.35;4.57;;;;;;;;;;4902336;29;20081;-80
2022/06/15 06:17:34;;;;;;;9.60;4.40;;;;;;;;;;4900913;29;20059;-81
2022/06/15 06:20:00;;;;;;;9.35;4.53;;;;;;;;;;4892554;29;20053;-81
2022/06/15 06:22:26;;;;;;;8.68;5.20;;;;;;;;;;4912159;29;20041;-76
2022/06/15 06:24:52;;;;;;;12.68;4.95;;;;;;;;;;4891375;29;20049;-79
2022/06/15 06:27:18;;;;;;;7.60;4.47;;;;;;;;;;4880728;29;20041;-78
2022/06/15 06:29:44;;;;;;;9.23;4.05;;;;;;;;;;4873173;29;20565;-80
2022/06/15 06:32:14;;;;;;;7.55;3.35;;;;;;;;;;4867678;29;20092;-80
2022/06/15 06:34:40;;;;;;;6.57;3.30;;;;;;;;;;4873421;29;20064;-79
2022/06/15 06:37:07;;;;;;;7.95;3.28;;;;;;;;;;4861282;29;20060;-77
2022/06/15 06:39:34;;;;;;;4.40;2.90;;;;;;;;;;4856145;29;20059;-78
2022/06/15 06:42:01;;;;;;;12.40;3.13;;;;;;;;;;4884403;29;20385;-78
2022/06/15 06:44:27;;;;;;;6.97;3.30;;;;;;;;;;4911060;29;20052;-78
2022/06/15 06:46:54;;;;;;;11.10;3.45;;;;;;;;;;4897296;29;20375;-81
2022/06/15 06:49:20;;;;;;;5.15;3.10;;;;;;;;;;4864358;29;20112;-81
2022/06/15 06:51:47;;;;;;;8.43;3.40;;;;;;;;;;4868440;29;20044;-80
2022/06/15 06:54:16;;;;;;;8.82;3.20;;;;;;;;;;4855612;29;20513;-81
2022/06/15 06:56:42;;;;;;;6.40;3.30;;;;;;;;;;4884212;29;20090;-80
2022/06/15 06:59:09;;;;;;;8.50;3.35;;;;;;;;;;4856178;29;20049;-81
2022/06/15 07:01:39;;;;;;;7.15;3.38;;;;;;;;;;4883016;29;20029;-81
2022/06/15 07:04:05;;;;;;;7.53;3.03;;;;;;;;;;4893306;29;20044;-79
2022/06/15 07:06:32;;;;;;;7.63;3.28;;;;;;;;;;4872149;29;20521;-81
2022/06/15 07:08:58;;;;;;;5.72;3.13;;;;;;;;;;4891869;29;20048;-82
2022/06/15 07:11:24;;;;;;;8.02;3.33;;;;;;;;;;4879877;29;20565;-80
2022/06/15 07:13:50;;;;;;;6.90;3.20;;;;;;;;;;4872336;29;20044;-80
2022/06/15 07:16:17;;;;;;;5.30;2.38;;;;;;;;;;4872399;29;20103;-81
2022/06/15 07:18:45;;;;;;;11.60;2.53;;;;;;;;;;4887988;29;20124;-80
2022/06/15 07:21:13;;;;;;;8.55;2.10;;;;;;;;;;4870407;29;20082;-83
2022/06/15 07:23:39;;;;;;;3.72;1.70;;;;;;;;;;4893363;29;20418;-81
2022/06/15 07:26:07;;;;;;;7.28;2.50;;;;;;;;;;4874017;29;20153;-81
2022/06/15 07:28:34;;;;;;;6.80;2.72;;;;;;;;;;4896829;29;20505;-83
2022/06/15 07:31:00;;;;;;;7.55;2.83;;;;;;;;;;4871997;29;20412;-81
2022/06/15 07:33:26;;;;;;;13.98;2.65;;;;;;;;;;4872980;29;20409;-81
2022/06/15 07:35:52;;;;;;;6.70;2.33;;;;;;;;;;4869445;29;20056;-79
2022/06/15 07:38:26;;;;;;;4.85;1.90;;;;;;;;;;4873500;29;20056;-80
2022/06/15 07:40:52;;;;;;;3.78;2.10;;;;;;;;;;4864080;29;20120;-80
2022/06/15 07:43:19;;;;;;;3.78;1.90;;;;;;;;;;4871050;29;20391;-80
2022/06/15 07:45:45;;;;;;;3.40;1.80;;;;;;;;;;4864417;29;20045;-80
2022/06/15 07:50:56;;;;;;;6.32;2.10;;;;;;;;;;4871515;29;20043;-80
2022/06/15 07:53:22;;;;;;;6.00;1.60;;;;;;;;;;4875349;29;20041;-76
2022/06/15 07:55:52;;;;;;;4.90;1.70;;;;;;;;;;4885449;29;20371;-79
2022/06/15 07:58:18;;;;;;;6.53;2.03;;;;;;;;;;4879479;29;20049;-77
2022/06/15 08:00:46;;;;;;;4.43;2.20;;;;;;;;;;4888702;29;20037;-79
2022/06/15 08:03:13;;;;;;;5.03;2.20;;;;;;;;;;4875694;29;20057;-77
2022/06/15 08:05:41;;;;;;;4.15;2.50;;;;;;;;;;4874944;29;20056;-79
2022/06/15 08:08:09;;;;;;;3.17;1.73;;;;;;;;;;4874626;29;20061;-83
2022/06/15 08:10:36;;;;;;;7.25;2.10;;;;;;;;;;4876770;29;20048;-80
2022/06/15 08:13:03;;;;;;;7.90;2.33;;;;;;;;;;4876431;29;20061;-80
2022/06/15 08:15:29;;;;;;;5.57;2.28;;;;;;;;;;4882317;29;20053;-78
2022/06/15 08:17:58;;;;;;;4.28;1.65;;;;;;;;;;4874758;29;20048;-81
2022/06/15 08:20:47;;;;;;;4.63;1.58;;;;;;;;;;4882210;29;20049;-82
2022/06/15 08:23:15;;;;;;;2.70;1.40;;;;;;;;;;4863738;29;20053;-82
2022/06/15 08:25:44;;;;;;;3.22;1.58;;;;;;;;;;4884495;29;20423;-77
2022/06/15 08:28:12;;;;;;;8.40;1.70;;;;;;;;;;4871458;29;20111;-81
2022/06/15 08:30:38;;;;;;;4.25;1.58;;;;;;;;;;4867990;29;20052;-82
2022/06/15 08:33:05;;;;;;;6.05;1.73;;;;;;;;;;4884897;29;20351;-82
2022/06/15 08:35:36;;;;;;;4.10;1.60;;;;;;;;;;4889938;29;20107;-81
2022/06/15 08:38:02;;;;;;;7.03;2.72;;;;;;;;;;4886742;29;20055;-82
2022/06/15 08:40:31;;;;;;;8.82;2.38;;;19.00;99.90;;;;;;4889457;29;20430;-78
2022/06/15 08:42:59;;;;;;;7.18;2.28;;;;;;;;;;4889146;29;20564;-83
2022/06/15 08:45:31;;;;;;;6.07;2.38;;;;;;;;;;4885528;29;20135;-80
2022/06/15 08:48:21;;;;;;;10.00;2.45;;;;;;;;;;4867027;29;20053;-83
2022/06/15 08:51:06;;;;;;;6.97;2.40;;;;;;;;;;4867592;29;20570;-83
2022/06/15 08:53:32;;;;;;;;;;;;;;;;;;4860336;29;20518;-81
2022/06/15 08:56:10;;;;;;;5.70;2.20;;;;;;;;;;4860290;29;20301;-82
2022/06/15 08:58:44;;;;;;;8.73;2.50;;;;;;;;;;4859610;29;20156;-81
2022/06/15 09:01:16;;;;;;;5.88;2.63;;;;;;;;;;4864666;29;20056;-82
2022/06/15 09:03:53;;;;;;;9.65;2.50;;;19.30;99.90;;;;;;4849176;29;20486;-81
2022/06/15 09:06:22;;;;;;;9.40;2.97;;;;;;;;;;4868134;29;20049;-80
2022/06/15 09:09:02;;;;;;;8.27;2.83;;;;;;;;;;4859786;29;20064;-78
2022/06/15 09:11:44;;;;;;;13.27;3.97;;;;;;;;;;4868817;29;20737;-79
2022/06/15 09:14:10;;;;;;;10.45;2.75;;;;;;;;;;4863473;29;20473;-76
2022/06/15 09:16:42;;;;;;;8.80;2.70;;;;;;;;;;4869493;29;20537;-77
2022/06/15 09:19:11;;;;;;;10.30;2.92;;;;;;;;;;4863546;29;20447;-79
2022/06/15 09:21:42;;;;;;;11.90;3.40;;;;;;;;;;4862142;29;20446;-78
2022/06/15 09:24:09;;;;;;;8.32;3.33;;;;;;;;;;4850393;29;20050;-78
2022/06/15 09:26:43;;;;;;;7.90;3.63;;;;;;;;;;4855389;29;20053;-82
2022/06/15 09:29:12;;;;;;;10.02;3.15;;;;;;;;;;4872792;29;20063;-77
2022/06/15 09:31:39;;;;;;;6.82;3.40;;;;;;;;;;4857117;29;20053;-80
2022/06/15 09:34:06;;;;;;;9.82;4.10;;;;;;;;;;4874163;29;20101;-83
2022/06/15 09:36:38;;;;;;;10.23;3.63;;;;;;;;;;4884342;29;20061;-80
2022/06/15 09:39:04;;;;;;;11.93;3.20;;;;;;;;;;4884353;29;20413;-81
2022/06/15 09:41:30;;;;;;;8.25;3.10;;;;;;;;;;4871610;29;20049;-82
2022/06/15 09:44:09;;;;;;;6.93;3.40;;;;;;;;;;4865418;29;20045;-77
2022/06/15 09:46:41;;;;;;;9.25;3.35;;;;;;;;;;4872363;29;20170;-76
2022/06/15 09:49:20;;;;;;;6.43;2.95;;;;;;;;;;4874097;29;20048;-82
2022/06/15 09:51:46;;;;;;;9.30;3.80;;;;;;;;;;4884595;29;20060;-81
2022/06/15 09:54:19;;;;;;;5.82;2.92;;;;;;;;;;4894147;29;20045;-82
2022/06/15 09:56:45;;;;;;;10.30;3.55;;;;;;;;;;4892301;29;20064;-77
2022/06/15 09:59:15;;;;;;;12.50;2.67;;;;;;;;;;4853304;29;20062;-77
2022/06/15 10:01:45;;;;;;;9.60;2.72;;;;;;;;;;4868208;29;20048;-81
2022/06/15 10:04:16;;;;;;;8.13;2.97;;;;;;;;;;4850344;29;20053;-81
2022/06/15 10:06:52;;;;;;;7.85;2.95;;;;;;;;;;4865337;29;20048;-81
2022/06/15 10:09:23;;;;;;;5.55;2.65;;;;;;;;;;4868106;29;20135;-81
2022/06/15 10:11:51;;;;;;;5.45;2.67;;;;;;;;;;4871257;29;20125;-79
2022/06/15 10:14:17;;;;;;;6.90;2.78;;;;;;;;;;4861241;29;20073;-75
2022/06/15 10:16:48;;;;;;;6.32;2.67;;;;;;;;;;4891438;29;20490;-74
2022/06/15 10:19:14;;;;;;;8.52;2.83;;;;;;;;;;4884516;29;20053;-80
2022/06/15 10:21:41;;;;;;;7.00;2.78;;;;;;;;;;4885550;29;20081;-81
2022/06/15 10:24:18;;;;;;;7.72;2.55;;;;;;;;;;4876955;29;20083;-78
2022/06/15 10:26:44;;;;;;;6.63;2.10;;;;;;;;;;4893427;29;20075;-79
2022/06/15 10:29:18;;;;;;;6.72;2.28;;;;;;;;;;4883445;29;20052;-77
2022/06/15 10:32:05;;;;;;;5.53;2.35;;;21.10;99.90;;;;;;4874118;29;20055;-78
2022/06/15 10:34:46;;;;;;;4.78;2.28;;;;;;;;;;4879465;29;20059;-77
2022/06/15 10:37:22;;;;;;;2.63;1.80;;;;;;;;;;4872934;29;20120;-80
2022/06/15 10:39:49;;;;;;;5.75;2.08;;;;;;;;;;4885747;29;20060;-82
2022/06/15 10:42:19;;;;;;;5.45;2.30;;;;;;;;;;4864019;29;20096;-81
2022/06/15 10:44:51;;;;;;;5.07;2.05;;;;;;;;;;4881253;29;20036;-83
2022/06/15 10:47:20;;;;;;;4.43;2.00;;;;;;;;;;4876811;29;20095;-82
2022/06/15 10:49:49;;;;;;;5.65;1.95;;;;;;;;;;4894287;29;20051;-78
2022/06/15 10:52:22;;;;;;;5.05;1.80;;;;;;;;;;4894921;29;20079;-82
2022/06/15 11:03:08;;;;;;;6.07;2.13;;;;;;;;;;4901315;29;20084;-83
2022/06/15 11:05:34;;;;;;;3.67;2.03;;;;;;;;;;4902376;29;20207;-79
2022/06/15 11:08:05;;;;;;;4.60;2.08;;;;;;;;;;4893355;29;20500;-83
2022/06/15 11:10:32;;;;;;;5.40;1.90;;;;;;;;;;4890294;29;20653;-84
2022/06/15 11:13:00;;;;;;;5.85;2.25;;;;;;;;;;4893625;29;20057;-82
2022/06/15 11:18:01;;;;;;;4.43;1.95;;;;;;;;;;4865928;29;20116;-83
2022/06/15 11:18:24;;;;;;;2.15;1.52;;;21.90;99.90;;;;;;4862719;29;20060;-84
2022/06/15 11:21:12;;;;;;;4.00;2.10;;;;;;;;;;4872786;29;20032;-85
2022/06/15 11:23:44;;;;;;;3.80;2.30;;;;;;;;;;4861440;29;20119;-83
2022/06/15 11:29:00;;;;;;;3.40;1.70;;;;;;;;;;4878432;29;20057;-82
2022/06/15 11:31:27;;;;;;;4.60;2.00;;;;;;;;;;4870038;29;20049;-82
2022/06/15 11:33:57;;;;;;;5.30;2.10;;;;;;;;;;4868699;29;20080;-81
2022/06/15 11:36:43;;;;;;;3.60;1.60;;;;;;;;;;4889130;29;20083;-81
2022/06/15 11:39:17;;;;;;;4.68;1.80;;;;;;;;;;4861275;29;20057;-79
2022/06/15 11:41:51;;;;;;;4.22;1.77;;;;;;;;;;4878539;29;20045;-80
2022/06/15 11:44:27;;;;;;;3.83;1.88;;;;;;;;;;4866617;29;20059;-83
2022/06/15 11:47:06;;;;;;;4.68;1.80;;;;;;;;;;4894175;29;20060;-81
2022/06/15 11:49:35;;;;;;;4.97;1.90;;;;;;;;;;4886507;29;20053;-78
2022/06/15 11:52:16;;;;;;;2.25;1.67;;;;;;;;;;4858586;29;20093;-82
2022/06/15 11:55:01;;;;;;;3.67;1.80;;;;;;;;;;4854600;29;20044;-82
2022/06/15 11:57:30;;;;;;;6.70;1.70;;;;;;;;;;4858290;29;20045;-80
2022/06/15 11:59:59;;;;;;;4.93;2.10;;;;;;;;;;4867573;29;20056;-81
2022/06/15 12:02:25;;;;;;;1.88;1.42;;;;;;;;;;4878729;29;20092;-82
2022/06/15 12:05:10;;;;;;;2.92;1.60;;;;;;;;;;4886361;29;20044;-84
2022/06/15 12:07:48;;;;;;;5.25;1.80;;;;;;;;;;4876638;29;20048;-80
2022/06/15 12:10:33;;;;;;;4.30;2.13;;;;;;;;;;4884302;29;20052;-76
2022/06/15 12:13:07;;;;;;;3.08;2.05;;;;;;;;;;4884036;29;20056;-79
2022/06/15 12:15:47;;;;;;;4.60;1.98;;;;;;;;;;4880528;29;20075;-81
2022/06/15 12:18:22;;;;;;;4.18;1.67;;;;;;;;;;4878724;29;20462;-80
2022/06/15 12:20:52;;;;;;;4.43;1.63;;;;;;;;;;4874996;29;20056;-79
2022/06/15 12:23:30;;;;;;;4.25;1.88;;;;;;;;;;4889841;29;20049;-77
2022/06/15 12:25:56;;;;;;;2.10;1.55;;;;;;;;;;4866412;29;20040;-77
2022/06/15 12:28:33;;;;;;;2.90;2.10;;;;;;;;;;4882587;29;20036;-76
2022/06/15 12:31:06;;;;;;;3.75;1.80;;;;;;;;;;4850797;29;20053;-79
2022/06/15 12:33:55;;;;;;;5.93;2.00;;;22.80;99.90;;;;;;4888771;29;20050;-79
2022/06/15 12:36:41;;;;;;;3.03;1.50;;;;;;;;;;4869977;29;20103;-77
2022/06/15 12:39:17;;;;;;;8.70;2.00;;;;;;;;;;4867669;29;20155;-80
2022/06/15 12:44:28;;;;;;;3.80;1.98;;;;;;;;;;4891365;29;20040;-80
2022/06/15 12:46:56;;;;;;;3.40;1.40;;;;;;;;;;4893014;29;20068;-80
2022/06/15 12:49:28;;;;;;;3.20;1.70;;;;;;;;;;4881140;29;20425;-79
2022/06/15 12:52:12;;;;;;;5.03;2.00;;;;;;;;;;4891066;29;20049;-79
2022/06/15 12:55:08;;;;;;;6.70;1.77;;;;;;;;;;4910266;29;20044;-79
2022/06/15 12:57:55;;;;;;;4.30;1.63;;;23.40;99.90;;;;;;4872371;29;20048;-79
2022/06/15 13:00:31;;;;;;;3.67;1.80;;;;;;;;;;4905031;29;20127;-79
2022/06/15 13:03:01;;;;;;;4.18;1.75;;;;;;;;;;4891033;29;20516;-82
2022/06/15 13:05:29;;;;;;;3.05;1.60;;;;;;;;;;4887175;29;20505;-79
2022/06/15 13:08:17;;;;;;;2.92;1.77;;;;;;;;;;4864937;29;20211;-82
2022/06/15 13:10:55;;;;;;;5.22;1.85;;;;;;;;;;4880244;29;20055;-82
2022/06/15 13:13:26;;;;;;;4.35;2.00;;;;;;;;;;4866497;29;20073;-81
2022/06/15 13:15:54;;;;;;;1.90;1.50;;;;;;;;;;4860365;29;20404;-83
2022/06/15 13:18:42;;;;;;;3.72;1.48;;;23.10;99.90;;;;;;4880406;29;20033;-82
2022/06/15 13:21:09;;;;;;;3.95;1.67;;;;;;;;;;4885660;29;20386;-81
2022/06/15 13:23:35;;;;;;;4.28;1.63;;;;;;;;;;4866019;29;20060;-83
2022/06/15 13:26:41;;;;;;;5.00;2.10;;;;;;;;;;4872795;29;20053;-81
2022/06/15 13:29:10;;;;;;;5.13;1.70;;;;;;;;;;4838751;29;20054;-82
2022/06/15 13:31:44;;;;;;;3.45;1.60;;;;;;;;;;4804351;29;20034;-82
2022/06/15 13:34:14;;;;;;;6.95;1.98;;;;;;;;;;4866799;29;20401;-84
2022/06/15 13:36:40;;;;;;;5.43;1.52;;;;;;;;;;4867225;29;20067;-83
2022/06/15 13:39:28;;;;;;;4.05;1.80;;;;;;;;;;4909670;29;20143;-82
2022/06/15 13:42:13;;;;;;;3.22;1.67;;;;;;;;;;4878469;29;20044;-85
2022/06/15 13:45:24;;;;;;;2.08;1.88;;;23.40;99.90;;;;;;4864521;29;20056;-78
2022/06/15 13:48:01;;;;;;;5.13;1.95;;;;;;;;;;4867630;29;20063;-81
2022/06/15 13:50:40;;;;;;;6.43;1.83;;;;;;;;;;4854238;29;20105;-81
2022/06/15 13:53:08;;;;;;;3.78;1.95;;;;;;;;;;4890440;29;20040;-80
2022/06/15 13:55:39;;;;;;;4.50;1.60;;;;;;;;;;4901114;29;20506;-80
2022/06/15 13:58:29;;;;;;;2.78;1.67;;;;;;;;;;4882476;29;20044;-79
2022/06/15 14:01:14;;;;;;;3.83;1.70;;;;;;;;;;4876908;29;20090;-82
2022/06/15 14:03:52;;;;;;;3.67;1.90;;;;;;;;;;4899626;29;20105;-79
2022/06/15 14:06:18;;;;;;;3.72;1.58;;;;;;;;;;4898922;29;20055;-83
2022/06/15 14:09:03;;;;;;;3.90;1.80;;;;;;;;;;4896244;29;20123;-93
2022/06/15 14:11:40;;;;;;;6.28;1.80;;;;;;;;;;4898777;29;20528;-90
2022/06/15 14:14:13;;;;;;;3.45;1.77;;;;;;;;;;4902675;29;20052;-89
2022/06/15 14:16:40;;;;;;;;;;;;;;;;;;4906604;29;20040;-88
2022/06/15 14:19:08;;;;;;;4.13;1.85;;;;;;;;;;4898424;29;19998;-85
2022/06/15 14:21:37;;;;;;;3.17;1.77;;;;;;;;;;4900758;29;20052;-82
2022/06/15 14:24:23;;;;;;;2.88;1.80;;;;;;;;;;4906069;29;20538;-79
2022/06/15 14:26:49;;;;;;;3.38;1.70;;;;;;;;;;4875689;29;20429;-81
2022/06/15 14:29:17;;;;;;;6.20;1.98;;;;;;;;;;4908879;29;20111;-80
2022/06/15 14:31:45;;;;;;;5.20;2.05;;;;;;;;;;4879481;29;20138;-84
2022/06/15 14:34:19;;;;;;;4.63;1.90;;;;;;;;;;4906566;29;20059;-84
2022/06/15 14:36:54;;;;;;;3.53;1.77;;;24.20;99.90;;;;;;4878161;29;20053;-85
2022/06/15 14:39:21;;;;;;;2.95;1.98;;;;;;;;;;4882793;29;20220;-83
2022/06/15 14:41:59;;;;;;;4.82;1.65;;;;;;;;;;4890043;29;20055;-83
2022/06/15 14:44:25;;;;;;;4.13;1.70;;;;;;;;;;4882833;29;20154;-82
2022/06/15 14:46:57;;;;;;;3.70;1.70;;;;;;;;;;4882028;29;20383;-86
2022/06/15 14:49:31;;;;;;;3.53;1.77;;;;;;;;;;4880620;29;20036;-84
2022/06/15 14:52:14;;;;;;;3.53;1.60;;;;;;;;;;4872881;29;20040;-85
2022/06/15 14:54:41;;;;;;;3.38;1.70;;;;;;;;;;4888611;29;20049;-84
2022/06/15 14:57:08;;;;;;;3.97;1.80;;;;;;;;;;4855864;29;20056;-83
2022/06/15 14:59:48;;;;;;;4.63;2.10;;;;;;;;;;4855466;29;20044;-85
2022/06/15 15:02:14;;;;;;;3.53;1.80;;;;;;;;;;4891683;29;20042;-84
2022/06/15 15:04:43;;;;;;;3.60;1.42;;;24.30;99.90;;;;;;4870131;29;20064;-85
2022/06/15 15:10:27;;;;;;;5.70;1.85;;;;;;;;;;4874884;29;20060;-85
2022/06/15 15:12:54;;;;;;;4.40;1.55;;;24.10;99.90;;;;;;4881947;29;20044;-84
2022/06/15 15:15:20;;;;;;;4.72;1.75;;;;;;;;;;4896324;29;20549;-84
2022/06/15 15:17:58;;;;;;;6.22;2.45;;;;;;;;;;4878800;29;20041;-82
2022/06/15 15:20:28;;;;;;;2.20;1.63;;;;;;;;;;4892414;29;20040;-81